Time;durP1;ratioP1;P1;durP2;ratioP2;P2;SDS_P1;SDS_P2;PMS_P1;PMS_P2;Temp;Humidity;BMP_temperature;BMP_pressure;BME280_temperature;BME280_humidity;BME280_pressure;Samples;Min_cycle;Max_cycle;Signal;HPM_P1;HPM_P2
2023/01/16 00:02:17;;;;;;;6.28;2.85;;;7.40;63.50;;;;;;4999279;28;20030;-76
2023/01/16 00:04:43;;;;;;;8.15;3.05;;;7.40;63.50;;;;;;4999274;28;20049;-76
2023/01/16 00:07:09;;;;;;;6.55;2.85;;;7.40;63.50;;;;;;5017945;28;20384;-76
2023/01/16 00:09:35;;;;;;;5.20;3.10;;;7.40;63.50;;;;;;5011901;28;20501;-77
2023/01/16 00:12:01;;;;;;;7.30;2.83;;;7.40;63.50;;;;;;5019133;28;20029;-76
2023/01/16 00:14:30;;;;;;;8.95;3.28;;;7.30;63.30;;;;;;4988746;28;20045;-75
2023/01/16 00:16:57;;;;;;;5.60;2.95;;;7.40;63.50;;;;;;4998189;28;20070;-74
2023/01/16 00:19:23;;;;;;;7.57;3.00;;;7.40;63.50;;;;;;4993083;28;20662;-74
2023/01/16 00:21:49;;;;;;;8.93;3.10;;;7.30;63.40;;;;;;5017739;28;20108;-76
2023/01/16 00:24:15;;;;;;;7.53;3.40;;;7.30;63.40;;;;;;5001158;28;20160;-76
2023/01/16 00:26:40;;;;;;;7.80;2.78;;;7.30;63.40;;;;;;5002784;28;20105;-76
2023/01/16 00:29:07;;;;;;;6.85;2.63;;;7.30;63.40;;;;;;5018074;28;20026;-77
2023/01/16 00:31:32;;;;;;;9.95;3.47;;;7.20;63.30;;;;;;5001892;28;20034;-79
2023/01/16 00:33:59;;;;;;;7.45;3.05;;;7.30;63.50;;;;;;4986620;28;20038;-79
2023/01/16 00:36:25;;;;;;;9.10;3.10;;;7.30;63.50;;;;;;5000450;28;20108;-77
2023/01/16 00:38:51;;;;;;;10.32;3.47;;;7.30;63.50;;;;;;5031353;28;20029;-77
2023/01/16 00:41:17;;;;;;;10.02;3.47;;;7.20;63.30;;;;;;5009599;28;20099;-75
2023/01/16 00:43:43;;;;;;;6.85;3.28;;;7.20;63.30;;;;;;5006314;28;20504;-77
2023/01/16 00:46:09;;;;;;;8.57;3.28;;;7.20;63.40;;;;;;5004775;28;20033;-76
2023/01/16 00:48:35;;;;;;;6.15;2.42;;;7.20;63.40;;;;;;4997541;28;20046;-77
2023/01/16 00:51:02;;;;;;;7.30;2.97;;;7.20;63.40;;;;;;5000418;28;20077;-78
2023/01/16 00:53:28;;;;;;;6.80;2.60;;;7.20;63.50;;;;;;4996213;28;20120;-77
2023/01/16 00:55:54;;;;;;;5.93;2.60;;;7.20;63.50;;;;;;5002551;28;20197;-77
2023/01/16 00:58:20;;;;;;;6.53;2.22;;;7.20;63.50;;;;;;5000367;28;20022;-76
2023/01/16 01:00:46;;;;;;;5.88;2.72;;;7.20;63.50;;;;;;5009400;28;20562;-78
2023/01/16 01:03:12;;;;;;;4.47;2.38;;;7.20;63.60;;;;;;4992388;28;20022;-80
2023/01/16 01:05:38;;;;;;;5.95;2.50;;;7.20;63.60;;;;;;5005062;28;20040;-77
2023/01/16 01:08:05;;;;;;;5.75;2.78;;;7.10;63.40;;;;;;5014078;28;20064;-75
2023/01/16 01:10:31;;;;;;;9.52;2.55;;;7.10;63.40;;;;;;5014656;28;20616;-74
2023/01/16 01:12:57;;;;;;;8.63;2.50;;;7.20;63.70;;;;;;4998230;28;20072;-76
2023/01/16 01:15:24;;;;;;;7.25;2.50;;;7.10;63.50;;;;;;4998904;28;20034;-77
2023/01/16 01:17:50;;;;;;;5.85;2.00;;;7.10;63.50;;;;;;5003953;28;20030;-77
2023/01/16 01:20:16;;;;;;;10.18;2.25;;;7.10;63.50;;;;;;4998698;28;20087;-76
2023/01/16 01:22:44;;;;;;;6.50;2.45;;;7.10;63.50;;;;;;5014232;28;20033;-77
2023/01/16 01:25:11;;;;;;;13.73;2.85;;;7.10;63.50;;;;;;5010548;28;20060;-76
2023/01/16 01:27:37;;;;;;;9.20;2.88;;;7.10;63.50;;;;;;5017012;28;20450;-77
2023/01/16 01:30:03;;;;;;;8.75;3.00;;;7.10;63.50;;;;;;4994343;28;20045;-77
2023/01/16 01:32:29;;;;;;;7.93;2.42;;;7.10;63.50;;;;;;4995277;28;20046;-77
2023/01/16 01:34:55;;;;;;;10.25;3.67;;;7.10;63.60;;;;;;5000956;28;20088;-76
2023/01/16 01:37:21;;;;;;;6.10;2.42;;;7.10;63.60;;;;;;4988939;28;20030;-77
2023/01/16 01:39:47;;;;;;;10.02;3.40;;;7.10;63.60;;;;;;5002705;28;20044;-76
2023/01/16 01:45:11;;;;;;;8.48;2.38;;;7.10;63.60;;;;;;5019887;28;20041;-78
2023/01/16 01:47:41;;;;;;;8.02;3.00;;;7.10;63.60;;;;;;5001114;28;20448;-75
2023/01/16 01:50:27;;;;;;;6.30;2.72;;;7.00;63.40;;;;;;5004896;28;20129;-76
2023/01/16 01:52:54;;;;;;;10.88;3.08;;;7.10;63.70;;;;;;5004719;28;20038;-76
2023/01/16 01:55:21;;;;;;;10.20;3.28;;;7.00;63.50;;;;;;4998391;28;20289;-75
2023/01/16 01:57:54;;;;;;;9.52;3.17;;;7.00;63.50;;;;;;5003206;28;20037;-76
2023/01/16 02:00:23;;;;;;;8.95;2.63;;;7.00;63.50;;;;;;5004315;28;20582;-76
2023/01/16 02:02:55;;;;;;;9.18;2.50;;;7.00;63.50;;;;;;5006472;28;20037;-76
2023/01/16 02:05:34;;;;;;;8.75;2.90;;;7.00;63.50;;;;;;5014428;28;20058;-76
2023/01/16 02:08:04;;;;;;;9.85;3.17;;;6.90;63.40;;;;;;5000850;28;20480;-76
2023/01/16 02:10:38;;;;;;;6.30;2.80;;;7.00;63.60;;;;;;5003939;28;20042;-75
2023/01/16 02:13:04;;;;;;;8.18;2.65;;;6.90;63.40;;;;;;5007188;28;20033;-76
2023/01/16 02:15:30;;;;;;;11.40;2.90;;;6.90;63.40;;;;;;5000061;28;20026;-77
2023/01/16 02:21:11;;;;;;;7.45;2.45;;;6.90;63.50;;;;;;5004463;28;20619;-78
2023/01/16 02:24:15;;;;;;;9.90;3.42;;;6.90;63.50;;;;;;5005253;28;20108;-78
2023/01/16 02:27:00;;;;;;;7.35;2.20;;;6.90;63.50;;;;;;5005265;28;20307;-76
2023/01/16 02:30:01;;;;;;;12.75;3.45;;;6.90;63.50;;;;;;5001330;28;20030;-76
2023/01/16 02:33:03;;;;;;;7.78;2.65;;;6.90;63.50;;;;;;4988234;28;20026;-78
2023/01/16 02:35:48;;;;;;;8.35;2.03;;;6.90;63.50;;;;;;4969915;28;20049;-77
2023/01/16 02:38:30;;;;;;;10.55;2.95;;;6.90;63.60;;;;;;4995986;28;20435;-76
2023/01/16 02:41:05;;;;;;;8.43;2.85;;;6.90;63.60;;;;;;5002850;28;20033;-77
2023/01/16 02:43:55;;;;;;;10.40;3.13;;;6.90;63.60;;;;;;5002559;28;20038;-78
2023/01/16 02:46:34;;;;;;;8.40;2.97;;;6.90;63.60;;;;;;5030659;23;20057;-89
2023/01/16 02:49:19;;;;;;;6.95;1.92;;;6.90;63.60;;;;;;5032105;28;20033;-89
2023/01/16 02:51:58;;;;;;;5.97;2.40;;;6.90;63.60;;;;;;5017406;28;20045;-88
2023/01/16 02:54:32;;;;;;;8.15;2.33;;;6.90;63.60;;;;;;5030887;28;20463;-88
2023/01/16 02:57:07;;;;;;;9.30;2.08;;;6.90;63.60;;;;;;5035550;28;20055;-89
2023/01/16 02:59:34;;;;;;;9.10;2.67;;;6.90;63.60;;;;;;5035718;28;20099;-89
2023/01/16 03:02:01;;;;;;;7.25;2.33;;;6.90;63.60;;;;;;5038662;28;20037;-91
2023/01/16 03:04:36;;;;;;;10.50;2.85;;;6.90;63.60;;;;;;5051163;28;20033;-88
2023/01/16 03:07:32;;;;;;;8.23;1.92;;;6.90;63.70;;;;;;5038046;28;20333;-90
2023/01/16 03:10:20;;;;;;;6.75;1.80;;;6.90;63.70;;;;;;5035770;28;20030;-90
2023/01/16 03:13:19;;;;;;;9.27;3.15;;;6.90;63.70;;;;;;5019289;28;20087;-88
2023/01/16 03:15:58;;;;;;;4.63;1.85;;;6.90;63.70;;;;;;5044383;28;20356;-88
2023/01/16 03:18:41;;;;;;;11.20;3.03;;;6.90;63.60;;;;;;5028081;28;20037;-89
2023/01/16 03:21:10;;;;;;;5.47;1.70;;;6.90;63.70;;;;;;5037805;28;20037;-88
2023/01/16 03:23:52;;;;;;;7.40;1.67;;;6.90;63.60;;;;;;5043618;28;20518;-85
2023/01/16 03:26:37;;;;;;;10.27;2.17;;;6.90;63.70;;;;;;5033029;28;20112;-86
2023/01/16 03:29:25;;;;;;;7.95;1.95;;;6.90;63.70;;;;;;5029196;28;20075;-87
2023/01/16 03:32:00;;;;;;;6.32;1.85;;;6.90;63.60;;;;;;5038755;28;20050;-88
2023/01/16 03:34:38;;;;;;;8.45;1.60;;;6.90;63.60;;;;;;5013705;28;20058;-88
2023/01/16 03:37:19;;;;;;;7.63;2.00;;;6.90;63.60;;;;;;5010363;28;20040;-88
2023/01/16 03:39:51;;;;;;;7.07;1.90;;;6.90;63.60;;;;;;5026107;28;20040;-87
2023/01/16 03:42:39;;;;;;;6.38;2.20;;;6.90;63.60;;;;;;5018291;28;20029;-88
2023/01/16 03:45:11;;;;;;;5.60;1.52;;;6.90;63.60;;;;;;5044197;28;20507;-89
2023/01/16 03:47:45;;;;;;;7.25;2.10;;;6.90;63.60;;;;;;5022793;28;20513;-88
2023/01/16 03:50:13;;;;;;;9.68;1.70;;;6.90;63.60;;;;;;5034764;28;20052;-91
2023/01/16 03:52:45;;;;;;;4.35;1.85;;;6.90;63.60;;;;;;5029251;28;20535;-90
2023/01/16 03:55:39;;;;;;;8.47;2.43;;;6.90;63.60;;;;;;5034026;28;20741;-91
2023/01/16 03:58:11;;;;;;;8.15;2.03;;;6.90;63.70;;;;;;5020352;28;20038;-92
2023/01/16 04:01:00;;;;;;;7.32;2.03;;;6.90;63.60;;;;;;5023445;28;20063;-89
2023/01/16 04:03:34;;;;;;;6.60;1.63;;;6.90;63.60;;;;;;5024998;28;20040;-90
2023/01/16 04:06:25;;;;;;;5.68;1.98;;;6.90;63.60;;;;;;5029096;28;20033;-90
2023/01/16 04:08:52;;;;;;;6.63;2.03;;;6.90;63.60;;;;;;5034933;28;20064;-90
2023/01/16 04:11:20;;;;;;;7.18;2.22;;;6.90;63.60;;;;;;5037599;28;20033;-93
2023/01/16 04:13:50;;;;;;;5.57;2.25;;;6.80;63.50;;;;;;5039530;28;20037;-91
2023/01/16 04:16:19;;;;;;;6.38;2.00;;;6.90;63.70;;;;;;5034463;28;20039;-91
2023/01/16 04:18:46;;;;;;;8.02;1.90;;;6.80;63.50;;;;;;5035588;28;20055;-91
2023/01/16 04:21:13;;;;;;;5.15;1.60;;;6.80;63.50;;;;;;5032215;28;20034;-92
2023/01/16 04:23:38;;;;;;;4.43;1.50;;;6.90;63.70;;;;;;5045976;28;20059;-91
2023/01/16 04:26:04;;;;;;;7.30;2.15;;;6.80;63.50;;;;;;5034041;28;20030;-91
2023/01/16 04:28:30;;;;;;;7.90;1.67;;;6.90;63.70;;;;;;5017311;28;20396;-88
2023/01/16 04:30:56;;;;;;;5.05;1.60;;;6.80;63.50;;;;;;5032448;28;20665;-91
2023/01/16 04:33:22;;;;;;;6.88;1.92;;;6.80;63.50;;;;;;5026632;28;20553;-90
2023/01/16 04:35:48;;;;;;;4.90;2.08;;;6.80;63.50;;;;;;5033503;28;20034;-89
2023/01/16 04:38:14;;;;;;;3.05;1.48;;;6.80;63.50;;;;;;5030819;28;20033;-89
2023/01/16 04:40:40;;;;;;;5.40;1.55;;;6.80;63.50;;;;;;5029610;28;20481;-89
2023/01/16 04:43:06;;;;;;;5.32;1.17;;;6.80;63.50;;;;;;5041735;28;20040;-88
2023/01/16 04:45:32;;;;;;;5.15;1.38;;;6.80;63.50;;;;;;5030811;28;20025;-88
2023/01/16 04:47:58;;;;;;;5.13;1.42;;;6.80;63.50;;;;;;5031587;28;20123;-89
2023/01/16 04:50:23;;;;;;;2.80;1.13;;;6.80;63.50;;;;;;5032224;28;20068;-89
2023/01/16 04:52:50;;;;;;;4.50;1.02;;;6.80;63.50;;;;;;5016792;28;20037;-88
2023/01/16 04:55:16;;;;;;;1.85;1.23;;;6.80;63.50;;;;;;5028885;28;20508;-88
2023/01/16 04:57:42;;;;;;;5.85;1.63;;;6.80;63.50;;;;;;5029671;28;20021;-87
2023/01/16 05:00:09;;;;;;;3.25;1.00;;;6.70;63.30;;;;;;5028685;28;20041;-86
2023/01/16 05:02:36;;;;;;;3.33;0.95;;;6.70;63.30;;;;;;5016706;28;20746;-86
2023/01/16 05:05:02;;;;;;;3.55;0.82;;;6.70;63.30;;;;;;5032839;28;20048;-89
2023/01/16 05:07:28;;;;;;;4.68;1.27;;;6.70;63.30;;;;;;5032049;28;20045;-91
2023/01/16 05:09:54;;;;;;;5.50;1.55;;;6.70;63.30;;;;;;5029041;28;20041;-87
2023/01/16 05:12:20;;;;;;;2.78;1.13;;;6.60;63.10;;;;;;5027128;28;20034;-86
2023/01/16 05:14:46;;;;;;;2.50;1.50;;;6.70;63.30;;;;;;5029585;28;20084;-89
2023/01/16 05:17:12;;;;;;;3.47;1.27;;;6.70;63.30;;;;;;5030251;28;20857;-88
2023/01/16 05:19:38;;;;;;;2.00;0.85;;;6.60;63.10;;;;;;5022789;28;20469;-87
2023/01/16 05:22:04;;;;;;;2.58;1.35;;;6.60;63.10;;;;;;5026112;28;20068;-87
2023/01/16 05:24:30;;;;;;;4.57;1.25;;;6.60;63.10;;;;;;5029635;28;20057;-88
2023/01/16 05:26:56;;;;;;;1.45;0.77;;;6.60;63.10;;;;;;5045031;28;20048;-92
2023/01/16 05:29:22;;;;;;;6.30;1.35;;;6.60;63.00;;;;;;5051566;28;20037;-90
2023/01/16 05:31:48;;;;;;;2.10;0.90;;;6.60;63.10;;;;;;5027808;28;20050;-91
2023/01/16 05:34:13;;;;;;;4.13;1.00;;;6.50;62.90;;;;;;5022029;28;20036;-89
2023/01/16 05:36:39;;;;;;;3.72;1.13;;;6.50;62.90;;;;;;5044096;28;20107;-89
2023/01/16 05:39:05;;;;;;;6.68;1.58;;;6.50;62.90;;;;;;5031702;28;20503;-90
2023/01/16 05:41:31;;;;;;;1.92;0.80;;;6.50;62.90;;;;;;5019854;28;20037;-92
2023/01/16 05:43:57;;;;;;;3.10;1.02;;;6.50;62.80;;;;;;5024378;28;20048;-90
2023/01/16 05:46:24;;;;;;;1.55;0.82;;;6.50;63.30;;;;;;5032228;28;20411;-90
2023/01/16 05:48:50;;;;;;;2.83;1.17;;;6.50;62.90;;;;;;5027445;28;20769;-88
2023/01/16 05:51:16;;;;;;;3.35;1.10;;;6.40;62.70;;;;;;5037752;28;20099;-88
2023/01/16 05:53:42;;;;;;;3.97;0.85;;;6.40;62.70;;;;;;5030820;28;20061;-87
2023/01/16 05:56:10;;;;;;;1.02;0.70;;;6.40;62.80;;;;;;5032915;28;20581;-86
2023/01/16 05:58:37;;;;;;;2.58;0.70;;;6.40;62.80;;;;;;5029355;28;20380;-85
2023/01/16 06:01:03;;;;;;;3.03;0.73;;;6.40;62.80;;;;;;5022447;28;20033;-86
2023/01/16 06:03:30;;;;;;;1.40;0.68;;;6.40;62.80;;;;;;5031307;28;20420;-85
2023/01/16 06:05:58;;;;;;;3.83;1.08;;;6.40;62.70;;;;;;5023743;28;20041;-84
2023/01/16 06:08:25;;;;;;;2.47;0.60;;;6.40;62.80;;;;;;5036277;28;20172;-91
2023/01/16 06:10:51;;;;;;;3.47;0.80;;;6.40;62.70;;;;;;5031764;28;20073;-86
2023/01/16 06:13:17;;;;;;;2.80;0.68;;;6.50;62.90;;;;;;5039885;28;20593;-83
2023/01/16 06:15:43;;;;;;;2.97;0.85;;;6.50;62.90;;;;;;5030062;28;20044;-89
2023/01/16 06:18:09;;;;;;;1.55;0.82;;;6.50;62.80;;;;;;5028135;28;20049;-86
2023/01/16 06:20:35;;;;;;;2.42;0.65;;;6.50;62.90;;;;;;5035509;28;20484;-85
2023/01/16 06:23:01;;;;;;;1.65;0.77;;;6.50;62.80;;;;;;5023660;28;20038;-86
2023/01/16 06:25:26;;;;;;;2.20;1.52;;;6.50;62.80;;;;;;5009880;28;20041;-83
2023/01/16 06:27:52;;;;;;;1.38;0.70;;;6.50;62.80;;;;;;5019186;28;20530;-84
2023/01/16 06:30:19;;;;;;;0.90;0.90;;;6.50;62.70;;;;;;5028413;28;20641;-80
2023/01/16 06:32:49;;;;;;;3.80;0.70;;;6.50;62.70;;;;;;5023361;28;20094;-86
2023/01/16 06:35:15;;;;;;;1.42;0.70;;;6.50;62.60;;;;;;5032551;28;20044;-82
2023/01/16 06:37:41;;;;;;;0.70;0.60;;;6.60;62.80;;;;;;5029285;28;20376;-84
2023/01/16 06:40:07;;;;;;;1.95;1.50;;;6.50;62.60;;;;;;5029484;28;20167;-85
2023/01/16 06:42:34;;;;;;;1.92;0.57;;;6.50;62.50;;;;;;5043151;28;20544;-84
2023/01/16 06:44:59;;;;;;;2.03;0.60;;;6.50;62.50;;;;;;5044750;28;20033;-83
2023/01/16 06:47:27;;;;;;;1.10;0.60;;;6.60;62.70;;;;;;5034639;28;20080;-83
2023/01/16 06:49:53;;;;;;;0.85;0.63;;;6.60;62.60;;;;;;5052027;28;20493;-84
2023/01/16 06:52:22;;;;;;;2.47;1.10;;;6.60;62.60;;;;;;5044565;28;20108;-82
2023/01/16 06:54:48;;;;;;;0.77;0.50;;;6.60;62.60;;;;;;5051102;28;20037;-82
2023/01/16 06:57:14;;;;;;;1.45;0.88;;;6.60;62.50;;;;;;5026945;28;20067;-84
2023/01/16 06:59:40;;;;;;;2.53;0.68;;;6.60;63.00;;;;;;5042226;28;20476;-83
2023/01/16 07:02:08;;;;;;;1.52;0.60;;;6.60;62.50;;;;;;5033055;28;20040;-82
2023/01/16 07:04:34;;;;;;;0.98;0.50;;;6.70;62.80;;;;;;5023832;28;20025;-83
2023/01/16 07:07:00;;;;;;;2.25;0.55;;;6.70;62.90;;;;;;5024302;28;20060;-85
2023/01/16 07:09:29;;;;;;;1.05;0.50;;;6.70;63.00;;;;;;5032973;28;20485;-84
2023/01/16 07:11:55;;;;;;;1.30;0.50;;;6.80;63.30;;;;;;5023826;28;20034;-83
2023/01/16 07:22:56;;;;;;;1.35;0.73;;;7.10;64.10;;;;;;5023113;28;20037;-87
2023/01/16 07:25:34;;;;;;;1.02;0.80;;;7.20;64.40;;;;;;5003419;28;20504;-91
2023/01/16 07:28:01;;;;;;;1.67;0.75;;;7.20;64.60;;;;;;5016613;28;20057;-87
2023/01/16 07:30:28;;;;;;;1.17;0.52;;;7.30;64.70;;;;;;5024357;28;20413;-86
2023/01/16 07:32:54;;;;;;;1.27;0.40;;;7.40;65.00;;;;;;5023664;28;20084;-85
2023/01/16 07:35:20;;;;;;;1.98;0.50;;;7.40;65.00;;;;;;5025585;28;20416;-86
2023/01/16 07:37:45;;;;;;;1.13;0.50;;;7.40;64.90;;;;;;5023525;28;20033;-86
2023/01/16 07:40:12;;;;;;;1.02;0.70;;;7.40;64.80;;;;;;5023502;28;20025;-84
2023/01/16 07:42:38;;;;;;;0.68;0.50;;;7.40;64.80;;;;;;5029383;28;20060;-84
2023/01/16 07:45:04;;;;;;;0.40;0.40;;;7.30;64.60;;;;;;5018533;28;20489;-85
2023/01/16 07:47:32;;;;;;;1.77;0.50;;;7.30;64.70;;;;;;5018232;28;20065;-84
2023/01/16 07:50:00;;;;;;;0.25;0.25;;;7.30;64.70;;;;;;5055000;28;20029;-84
2023/01/16 07:52:26;;;;;;;0.35;0.30;;;7.20;64.60;;;;;;5050032;28;20040;-84
2023/01/16 07:54:52;;;;;;;1.98;0.75;;;7.20;64.60;;;;;;5043699;28;20028;-84
2023/01/16 07:57:18;;;;;;;0.40;0.40;;;7.10;64.40;;;;;;5027754;28;20161;-83
2023/01/16 07:59:44;;;;;;;0.30;0.30;;;7.10;64.40;;;;;;5024928;28;20434;-84
2023/01/16 08:02:10;;;;;;;0.85;0.70;;;7.10;64.40;;;;;;5036668;28;20436;-84
2023/01/16 08:04:36;;;;;;;0.55;0.35;;;7.10;64.50;;;;;;5030657;28;20036;-85
2023/01/16 08:07:02;;;;;;;1.10;0.40;;;7.10;64.50;;;;;;5027825;28;20396;-84
2023/01/16 08:09:28;;;;;;;0.60;0.30;;;7.00;64.20;;;;;;5024624;28;20037;-86
2023/01/16 08:11:54;;;;;;;0.30;0.30;;;7.00;64.20;;;;;;5021998;28;20244;-85
2023/01/16 08:14:20;;;;;;;0.55;0.43;;;7.10;64.30;;;;;;5030744;28;20407;-85
2023/01/16 08:16:46;;;;;;;1.40;0.40;;;7.00;64.10;;;;;;5029191;28;20037;-84
2023/01/16 08:19:12;;;;;;;0.68;0.50;;;7.00;64.00;;;;;;5034044;28;20033;-85
2023/01/16 08:21:38;;;;;;;0.40;0.40;;;7.10;64.10;;;;;;5030235;28;20052;-85
2023/01/16 08:24:04;;;;;;;0.98;0.57;;;7.10;64.10;;;;;;5025506;28;20033;-86
2023/01/16 08:26:31;;;;;;;1.65;0.50;;;7.10;64.10;;;;;;5040991;28;20080;-83
2023/01/16 08:28:57;;;;;;;0.80;0.30;;;7.10;64.10;;;;;;5023801;28;20396;-84
2023/01/16 08:31:23;;;;;;;1.63;0.30;;;7.10;64.20;;;;;;5007929;28;20445;-83
2023/01/16 08:33:49;;;;;;;1.00;0.30;;;7.10;64.30;;;;;;5035496;28;20132;-83
2023/01/16 08:36:16;;;;;;;0.60;0.50;;;7.30;64.70;;;;;;5031554;28;20405;-83
2023/01/16 08:38:43;;;;;;;0.30;0.30;;;7.30;64.80;;;;;;5029880;28;20375;-85
2023/01/16 08:51:21;;;;;;;0.40;0.40;;;7.40;65.00;;;;;;5017481;28;20127;-84
2023/01/16 08:52:11;;;;;;;0.40;0.40;;;7.80;65.60;;;;;;5024932;28;20076;-88
2023/01/16 08:54:37;;;;;;;0.40;0.32;;;7.80;65.50;;;;;;5013691;28;20036;-88
2023/01/16 08:57:04;;;;;;;0.63;0.50;;;7.90;65.70;;;;;;5023884;28;20095;-84
2023/01/16 08:59:33;;;;;;;0.90;0.55;;;8.00;66.40;;;;;;5029312;28;20365;-87
2023/01/16 09:02:01;;;;;;;0.63;0.40;;;8.10;66.00;;;;;;5025107;28;20041;-84
2023/01/16 09:04:26;;;;;;;0.32;0.30;;;8.20;66.10;;;;;;5030784;28;20067;-81
2023/01/16 09:06:53;;;;;;;1.13;0.50;;;8.40;66.40;;;;;;5033455;28;20048;-85
2023/01/16 09:09:20;;;;;;;0.40;0.40;;;8.40;66.40;;;;;;5034102;28;20131;-82
2023/01/16 09:14:30;;;;;;;3.22;0.50;;;8.60;66.50;;;;;;5022449;28;20021;-81
2023/01/16 09:16:56;;;;;;;0.68;0.40;;;8.70;66.50;;;;;;5036724;28;20029;-81
2023/01/16 09:19:22;;;;;;;0.60;0.60;;;8.90;66.70;;;;;;5021628;28;20037;-84
2023/01/16 09:21:48;;;;;;;1.38;0.45;;;9.00;66.70;;;;;;5040218;28;20067;-85
2023/01/16 09:24:14;;;;;;;0.65;0.60;;;9.10;66.80;;;;;;5031173;28;20026;-83
2023/01/16 09:26:40;;;;;;;2.42;0.47;;;9.20;66.70;;;;;;5036983;28;20025;-82
2023/01/16 09:29:06;;;;;;;0.85;0.70;;;9.30;66.70;;;;;;5043530;28;20045;-85
2023/01/16 09:31:32;;;;;;;1.17;0.40;;;9.50;66.90;;;;;;5034826;28;20132;-85
2023/01/16 09:33:58;;;;;;;2.05;1.67;;;9.60;66.90;;;;;;5015632;28;20128;-86
2023/01/16 09:36:24;;;;;;;1.48;0.95;;;9.70;67.40;;;;;;5025541;28;20128;-86
2023/01/16 09:38:50;;;;;;;5.75;1.20;;;9.80;66.80;;;;;;5021195;28;20277;-88
2023/01/16 09:43:35;;;;;;;1.10;1.00;;;9.90;66.80;;;;;;5022271;28;20044;-87
2023/01/16 09:44:08;;;;;;;1.30;1.20;;;10.00;66.70;;;;;;5027324;28;20025;-86
2023/01/16 09:46:45;;;;;;;1.63;1.10;;;10.00;66.50;;;;;;5020087;28;20128;-85
2023/01/16 09:49:30;;;;;;;1.25;0.90;;;10.10;66.70;;;;;;5025687;28;20108;-86
2023/01/16 10:00:44;;;;;;;0.85;0.82;;;10.40;66.70;;;;;;5016897;28;20449;-86
2023/01/16 10:03:10;;;;;;;1.77;0.95;;;10.30;66.50;;;;;;5020935;28;20095;-85
2023/01/16 10:05:58;;;;;;;0.90;0.80;;;10.30;66.50;;;;;;5009089;28;20516;-85
2023/01/16 10:08:57;;;;;;;1.23;0.73;;;10.30;66.50;;;;;;5016522;28;20025;-84
2023/01/16 10:11:49;;;;;;;1.42;0.93;;;10.30;66.50;;;;;;5014730;28;20132;-82
2023/01/16 10:14:27;;;;;;;1.00;0.85;;;10.30;66.50;;;;;;5032502;28;20541;-82
2023/01/16 10:17:17;;;;;;;1.13;0.90;;;10.30;66.40;;;;;;5021698;28;20044;-87
2023/01/16 10:20:07;;;;;;;1.13;0.90;;;10.30;66.40;;;;;;5043302;28;20029;-88
2023/01/16 10:23:09;;;;;;;1.00;0.90;;;10.20;66.10;;;;;;5026637;28;20045;-85
2023/01/16 10:25:49;;;;;;;1.13;1.00;;;10.20;66.10;;;;;;5044626;28;20500;-81
2023/01/16 10:28:30;;;;;;;2.22;1.20;;;10.20;66.00;;;;;;5028430;28;20208;-83
2023/01/16 10:31:31;;;;;;;1.92;1.30;;;10.20;66.00;;;;;;5021993;28;20060;-84
2023/01/16 10:34:20;;;;;;;2.15;1.10;;;10.30;66.10;;;;;;5015761;28;20243;-82
2023/01/16 10:36:51;;;;;;;0.90;0.90;;;10.30;66.10;;;;;;5044011;28;20114;-85
2023/01/16 10:39:20;;;;;;;1.83;1.30;;;10.30;65.90;;;;;;5027715;28;20153;-88
2023/01/16 10:50:18;;;;;;;1.55;1.40;;;10.40;65.70;;;;;;5044238;28;20038;-87
2023/01/16 10:52:46;;;;;;;3.08;1.90;;;10.40;65.70;;;;;;5027797;28;20080;-89
2023/01/16 10:55:13;;;;;;;1.48;1.30;;;10.40;65.60;;;;;;5007152;28;20076;-87
2023/01/16 10:57:47;;;;;;;3.97;1.02;;;10.40;65.60;;;;;;5010130;28;20041;-87
2023/01/16 11:00:22;;;;;;;2.92;1.27;;;10.50;66.20;;;;;;5024666;28;20030;-86
2023/01/16 11:02:48;;;;;;;1.45;1.35;;;10.50;65.60;;;;;;5023496;28;20033;-86
2023/01/16 11:05:26;;;;;;;2.25;1.38;;;10.60;65.70;;;;;;5024065;28;20056;-87
2023/01/16 11:07:53;;;;;;;2.13;1.30;;;10.60;65.60;;;;;;5014799;28;20558;-88
2023/01/16 11:10:21;;;;;;;2.20;1.33;;;10.70;65.70;;;;;;5024063;28;20030;-86
2023/01/16 11:18:28;;;;;;;2.20;1.42;;;10.80;65.50;;;;;;5034429;28;20105;-87
2023/01/16 11:20:55;;;;;;;2.30;1.20;;;10.90;65.50;;;;;;5010909;28;20112;-88
2023/01/16 11:23:24;;;;;;;1.35;0.93;;;10.90;65.30;;;;;;5023386;28;20115;-86
2023/01/16 11:25:53;;;;;;;3.95;1.13;;;10.90;65.20;;;;;;5035061;28;20025;-88
2023/01/16 11:28:28;;;;;;;2.63;1.10;;;10.90;65.10;;;;;;5028883;28;20026;-89
2023/01/16 11:31:12;;;;;;;1.27;0.90;;;10.90;65.00;;;;;;5031953;28;20520;-89
2023/01/16 11:33:54;;;;;;;3.10;1.02;;;10.90;64.90;;;;;;5008897;28;20045;-86
2023/01/16 11:36:22;;;;;;;2.20;1.20;;;10.90;64.90;;;;;;5025328;28;20211;-85
2023/01/16 11:38:49;;;;;;;2.30;1.20;;;10.90;65.00;;;;;;5025966;28;20532;-86
2023/01/16 11:41:26;;;;;;;1.85;1.33;;;11.00;65.10;;;;;;5030524;28;20033;-86
2023/01/16 11:47:11;;;;;;;2.03;1.17;;;11.20;65.10;;;;;;5026560;28;20567;-87
2023/01/16 11:49:44;;;;;;;3.13;1.58;;;11.20;64.90;;;;;;5023866;28;20113;-89
2023/01/16 11:52:28;;;;;;;14.98;4.15;;;11.20;64.60;;;;;;5016975;28;20041;-83
2023/01/16 11:54:55;;;;;;;;;;;11.30;64.80;;;;;;5023191;28;20288;-84
2023/01/16 11:58:06;;;;;;;10.48;5.22;;;11.40;65.30;;;;;;5025226;28;20265;-88
2023/01/16 12:00:35;;;;;;;7.40;3.40;;;11.70;65.80;;;;;;5003080;28;20381;-83
2023/01/16 12:03:24;;;;;;;6.65;2.80;;;12.00;65.70;;;;;;5009780;28;20044;-83
2023/01/16 12:06:11;;;;;;;5.95;3.13;;;12.20;66.00;;;;;;5020694;28;20037;-82
2023/01/16 12:08:56;;;;;;;9.05;2.78;;;12.40;65.40;;;;;;5023637;28;20037;-83
2023/01/16 12:11:50;;;;;;;6.13;3.05;;;12.50;65.50;;;;;;5019582;28;20045;-82
2023/01/16 12:14:27;;;;;;;5.35;2.63;;;12.50;65.30;;;;;;5022691;28;20033;-81
2023/01/16 12:17:44;;;;;;;4.97;2.53;;;12.50;65.30;;;;;;5020962;28;20076;-82
2023/01/16 12:20:27;;;;;;;6.57;2.53;;;12.60;65.40;;;;;;5000538;28;20886;-84
2023/01/16 12:23:21;;;;;;;4.22;2.00;;;12.60;65.40;;;;;;5033909;28;20032;-84
2023/01/16 12:26:00;;;;;;;7.65;2.70;;;12.60;65.30;;;;;;5012318;28;20041;-83
2023/01/16 12:28:35;;;;;;;4.38;1.83;;;12.60;65.30;;;;;;5024832;28;20192;-84
2023/01/16 12:31:36;;;;;;;3.28;1.88;;;12.60;65.30;;;;;;5028410;28;20592;-83
2023/01/16 12:34:07;;;;;;;6.47;2.30;;;12.60;65.20;;;;;;5016327;28;20516;-83
2023/01/16 12:37:01;;;;;;;4.35;1.80;;;12.60;65.20;;;;;;5025489;28;20534;-82
2023/01/16 12:39:48;;;;;;;4.05;1.85;;;12.60;65.10;;;;;;5035957;28;20487;-83
2023/01/16 12:45:33;;;;;;;4.38;1.80;;;12.60;65.10;;;;;;5012757;28;20504;-83
2023/01/16 12:48:17;;;;;;;5.70;1.70;;;12.70;65.20;;;;;;5021180;28;20038;-81
2023/01/16 12:51:01;;;;;;;2.63;1.73;;;12.70;65.20;;;;;;5023898;28;20400;-82
2023/01/16 12:54:04;;;;;;;6.32;1.88;;;12.70;65.20;;;;;;5023615;28;20029;-82
2023/01/16 12:56:44;;;;;;;3.83;1.48;;;12.70;65.00;;;;;;5012575;28;20034;-82
2023/01/16 12:59:19;;;;;;;2.70;1.65;;;12.70;65.00;;;;;;5029712;28;20037;-81
2023/01/16 13:01:47;;;;;;;4.53;2.00;;;12.70;64.90;;;;;;5034114;28;20486;-82
2023/01/16 13:04:25;;;;;;;4.75;2.53;;;12.70;64.80;;;;;;5032648;28;20044;-82
2023/01/16 13:06:55;;;;;;;2.78;1.30;;;12.70;64.80;;;;;;5040808;28;20546;-82
2023/01/16 13:09:34;;;;;;;6.47;2.13;;;12.70;64.70;;;;;;5013469;28;20052;-85
2023/01/16 13:15:10;;;;;;;2.38;1.20;;;12.80;64.80;;;;;;5036778;28;20031;-86
2023/01/16 13:17:44;;;;;;;3.50;1.55;;;12.90;64.70;;;;;;5017828;28;20041;-84
2023/01/16 13:20:14;;;;;;;4.38;1.60;;;13.00;64.50;;;;;;5039627;28;20160;-84
2023/01/16 13:22:48;;;;;;;5.20;2.20;;;13.10;64.40;;;;;;5043231;28;20398;-83
2023/01/16 13:25:26;;;;;;;1.92;1.17;;;13.20;64.20;;;;;;5027214;28;20508;-84
2023/01/16 13:28:07;;;;;;;3.75;1.52;;;13.20;63.90;;;;;;5026727;28;20044;-84
2023/01/16 13:30:36;;;;;;;5.53;1.88;;;13.20;63.70;;;;;;5056161;28;20064;-89
2023/01/16 13:33:12;;;;;;;3.65;1.55;;;13.20;63.70;;;;;;5023366;28;20588;-83
2023/01/16 13:35:58;;;;;;;2.58;1.10;;;13.20;63.50;;;;;;5025142;28;20053;-83
2023/01/16 13:38:57;;;;;;;4.00;1.58;;;13.10;63.20;;;;;;5031761;28;20057;-84
2023/01/16 13:41:42;;;;;;;1.73;1.02;;;13.00;62.60;;;;;;5008566;28;20451;-83
2023/01/16 13:47:11;;;;;;;0.88;0.60;;;12.60;62.30;;;;;;5014480;28;20063;-82
2023/01/16 13:49:38;;;;;;;3.10;0.82;;;12.50;62.30;;;;;;5029306;28;20030;-82
2023/01/16 13:52:12;;;;;;;3.10;1.27;;;12.30;62.00;;;;;;5013653;28;20523;-83
2023/01/16 13:54:45;;;;;;;2.25;1.30;;;12.20;61.80;;;;;;5010239;28;20477;-84
2023/01/16 13:57:17;;;;;;;;;;;12.00;61.40;;;;;;5023704;28;20457;-84
2023/01/16 13:59:49;;;;;;;1.95;1.13;;;11.90;61.40;;;;;;5024839;28;20396;-85
2023/01/16 14:02:24;;;;;;;1.35;0.77;;;11.80;61.60;;;;;;5001889;28;20469;-84
2023/01/16 14:05:23;;;;;;;1.63;0.80;;;11.70;61.20;;;;;;5006522;28;20036;-84
2023/01/16 14:11:14;;;;;;;2.90;0.80;;;11.40;60.90;;;;;;5006214;28;20038;-83
2023/01/16 14:13:40;;;;;;;1.45;0.65;;;11.30;60.80;;;;;;5005684;28;20493;-83
2023/01/16 14:16:30;;;;;;;1.85;0.80;;;11.20;60.70;;;;;;5022765;28;20025;-84
2023/01/16 14:18:56;;;;;;;1.05;0.60;;;11.10;60.50;;;;;;5025442;28;20032;-82
2023/01/16 14:21:28;;;;;;;1.67;0.80;;;11.00;60.50;;;;;;5032361;28;20029;-82
2023/01/16 14:24:02;;;;;;;2.33;0.90;;;10.90;60.30;;;;;;5017640;28;20028;-82